Time;durP1;ratioP1;P1;durP2;ratioP2;P2;SDS_P1;SDS_P2;PMS_P1;PMS_P2;Temp;Humidity;BMP_temperature;BMP_pressure;BME280_temperature;BME280_humidity;BME280_pressure;Samples;Min_cycle;Max_cycle;Signal;HPM_P1;HPM_P2
2022/10/29 06:53:00;;;;;;;14.98;12.63;;;;;;;;;;6277479;22;20081;-79
2022/10/29 06:55:26;;;;;;;10.43;8.57;;;;;;;;;;6303800;22;20443;-76
2022/10/29 06:57:56;;;;;;;12.40;8.90;;;;;;;;;;6275896;22;20095;-76
2022/10/29 07:00:22;;;;;;;7.90;7.30;;;;;;;;;;6301881;22;20011;-77
2022/10/29 07:02:48;;;;;;;8.35;6.57;;;;;;;;;;6274241;22;20013;-72
2022/10/29 07:05:14;;;;;;;11.20;8.88;;;;;;;;;;6299894;22;20047;-72
2022/10/29 07:07:40;;;;;;;8.85;8.05;;;;;;;;;;6274030;22;20011;-72
2022/10/29 07:10:06;;;;;;;7.45;6.75;;;;;;;;;;6301406;22;20023;-71
2022/10/29 07:12:31;;;;;;;8.00;7.30;;;;;;;;;;6299642;22;20003;-72
2022/10/29 07:14:58;;;;;;;11.10;7.15;;;;;;;;;;6272523;22;20046;-72
2022/10/29 07:17:23;;;;;;;8.27;7.22;;;;;;;;;;6299716;22;20043;-73
2022/10/29 07:19:49;;;;;;;8.70;7.60;;;;;;;;;;6300599;22;20011;-72
2022/10/29 07:22:15;;;;;;;12.15;8.27;;;;;;;;;;6248467;22;20103;-74
2022/10/29 07:24:41;;;;;;;6.25;5.70;;;;;;;;;;6301256;22;20102;-72
2022/10/29 07:27:08;;;;;;;6.93;6.10;;;;;;;;;;6273674;22;20046;-73
2022/10/29 07:29:34;;;;;;;8.45;7.63;;;;;;;;;;6301167;22;20011;-72
2022/10/29 07:31:59;;;;;;;8.80;7.20;;;;;;;;;;6306236;22;20022;-72
2022/10/29 07:34:25;;;;;;;8.68;7.88;;;;;;;;;;6308970;22;20506;-73
2022/10/29 07:36:51;;;;;;;10.95;9.10;;;;;;;;;;6278189;22;20098;-71
2022/10/29 07:39:17;;;;;;;9.73;6.85;;;;;;;;;;6303219;22;20076;-72
2022/10/29 07:41:43;;;;;;;9.20;8.05;;;;;;;;;;6301948;22;20012;-72
2022/10/29 07:44:09;;;;;;;8.15;6.63;;;;;;;;;;6304240;22;20010;-74
2022/10/29 07:46:35;;;;;;;8.82;6.50;;;;;;;;;;6302981;22;20102;-74
2022/10/29 07:49:02;;;;;;;7.72;7.03;;;;;;;;;;6303614;22;20439;-74
2022/10/29 07:51:28;;;;;;;8.73;7.28;;;;;;;;;;6303330;22;20506;-73
2022/10/29 07:53:53;;;;;;;8.10;6.00;;;;;;;;;;6273896;22;20030;-75
2022/10/29 07:56:20;;;;;;;8.77;7.13;;;;;;;;;;6300837;22;20010;-75
2022/10/29 07:58:46;;;;;;;9.18;8.10;;;;;;;;;;6300112;22;20347;-74
2022/10/29 08:01:11;;;;;;;7.45;6.80;;;;;;;;;;6301093;22;20022;-74
2022/10/29 08:03:37;;;;;;;7.20;6.22;;;;;;;;;;6274222;22;20011;-74
2022/10/29 08:06:03;;;;;;;7.20;5.47;;;;;;;;;;6301919;22;20039;-73
2022/10/29 08:08:30;;;;;;;13.38;7.47;;;;;;;;;;6250305;22;20003;-74
2022/10/29 08:11:02;;;;;;;10.25;7.72;;;;;;;;;;6303813;22;20052;-74
2022/10/29 08:13:28;;;;;;;9.00;8.10;;;;;;;;;;6303301;22;20018;-73
2022/10/29 08:15:54;;;;;;;7.05;6.35;;;;;;;;;;6303337;22;20019;-74
2022/10/29 08:18:20;;;;;;;7.07;5.97;;;;;;;;;;6303288;22;20015;-74
2022/10/29 08:20:46;;;;;;;10.48;8.70;;;;;;;;;;6302259;22;20427;-73
2022/10/29 08:23:12;;;;;;;10.13;8.05;;;;;;;;;;6303070;22;20043;-73
2022/10/29 08:25:41;;;;;;;8.75;7.72;;;;;;;;;;6302750;22;20011;-73
2022/10/29 08:28:11;;;;;;;12.73;6.70;;;;;;;;;;6302910;22;20451;-72
2022/10/29 08:30:37;;;;;;;9.90;8.02;;;;;;;;;;6302655;22;20043;-73
2022/10/29 08:33:03;;;;;;;8.95;7.95;;;;;;;;;;6275489;22;20461;-72
2022/10/29 08:35:30;;;;;;;9.68;7.57;;;;;;;;;;6302901;22;20011;-74
2022/10/29 08:37:55;;;;;;;10.07;7.50;;;;;;;;;;6302823;22;20011;-75
2022/10/29 08:40:28;;;;;;;15.48;9.23;;;;;;;;;;6302442;22;20011;-73
2022/10/29 08:43:12;;;;;;;12.18;9.50;;;;;;;;;;6275271;22;20018;-74
2022/10/29 08:45:45;;;;;;;13.10;9.60;;;;;;;;;;6302628;22;20094;-73
2022/10/29 08:48:18;;;;;;;9.68;8.75;;;;;;;;;;6274256;22;20011;-72
2022/10/29 08:50:44;;;;;;;8.15;7.10;;;;;;;;;;6274048;22;20037;-73
2022/10/29 08:53:36;;;;;;;14.60;11.15;;;;;;;;;;6302659;22;20026;-73
2022/10/29 08:56:03;;;;;;;14.18;9.30;;;;;;;;;;6297317;22;20015;-72
2022/10/29 08:58:32;;;;;;;11.63;8.40;;;;;;;;;;6275703;22;20015;-73
2022/10/29 09:00:58;;;;;;;11.48;10.27;;;;;;;;;;6275736;22;20011;-73
2022/10/29 09:03:26;;;;;;;9.52;7.20;;;;;;;;;;6302772;22;20018;-73
2022/10/29 09:05:55;;;;;;;8.45;7.55;;;;;;;;;;6274929;22;20019;-72
2022/10/29 09:08:31;;;;;;;9.20;8.18;;;;;;;;;;6302911;22;20011;-74
2022/10/29 09:10:58;;;;;;;10.30;8.98;;;;;;;;;;6302774;22;20019;-73
2022/10/29 09:13:42;;;;;;;11.70;8.98;;;;;;;;;;6223331;22;20015;-73
2022/10/29 09:16:08;;;;;;;9.85;7.72;;;;;;;;;;6302028;22;20073;-72
2022/10/29 09:18:43;;;;;;;9.82;8.88;;;;;;;;;;6302058;22;20105;-72
2022/10/29 09:21:22;;;;;;;8.68;7.18;;;;;;;;;;6302501;22;20015;-73
2022/10/29 09:23:59;;;;;;;7.35;6.68;;;;;;;;;;6301629;22;20007;-72
2022/10/29 09:26:34;;;;;;;7.95;6.80;;;;;;;;;;6275858;22;20007;-73
2022/10/29 09:29:29;;;;;;;12.50;9.05;;;;;;;;;;6302242;22;20447;-73
2022/10/29 09:31:58;;;;;;;12.18;8.25;;;;;;;;;;6275337;22;20081;-72
2022/10/29 09:34:28;;;;;;;9.98;8.95;;;;;;;;;;6274799;22;20023;-72
2022/10/29 09:36:54;;;;;;;10.50;8.80;;;;;;;;;;6275096;22;20467;-78
2022/10/29 09:39:33;;;;;;;10.90;8.13;;;;;;;;;;6270268;22;20030;-77
2022/10/29 09:41:59;;;;;;;9.38;8.48;;;;;;;;;;6274644;22;20011;-76
2022/10/29 09:44:36;;;;;;;11.77;7.97;;;;;;;;;;6248590;22;20359;-79
2022/10/29 09:47:21;;;;;;;9.73;8.73;;;;;;;;;;6301662;22;20007;-78
2022/10/29 09:49:50;;;;;;;9.80;8.10;;;;;;;;;;6301694;22;20011;-78
2022/10/29 09:52:18;;;;;;;10.43;9.30;;;;;;;;;;6302641;22;20023;-76
2022/10/29 09:54:43;;;;;;;14.32;10.40;;;;;;;;;;6304689;22;20039;-77
2022/10/29 09:57:16;;;;;;;17.02;9.55;;;;;;;;;;6277425;22;20060;-77
2022/10/29 09:59:50;;;;;;;15.02;10.38;;;;;;;;;;6277884;22;20094;-77
2022/10/29 10:02:25;;;;;;;12.68;9.38;;;;;;;;;;6275146;22;20015;-77
2022/10/29 10:04:53;;;;;;;13.32;8.30;;;;;;;;;;6301453;22;20011;-76
2022/10/29 10:07:19;;;;;;;11.93;8.75;;;;;;;;;;6301643;22;20015;-76
2022/10/29 10:09:49;;;;;;;10.73;8.45;;;;;;;;;;6301125;22;20098;-76
2022/10/29 10:12:15;;;;;;;17.47;10.00;;;;;;;;;;6248158;22;20019;-76
2022/10/29 10:14:42;;;;;;;13.80;10.27;;;;;;;;;;6300685;22;20244;-76
2022/10/29 10:17:08;;;;;;;13.55;10.25;;;;;;;;;;6301327;22;20011;-76
2022/10/29 10:19:34;;;;;;;14.30;9.80;;;;;;;;;;6274362;22;20015;-78
2022/10/29 10:22:00;;;;;;;12.45;10.63;;;;;;;;;;6272505;22;20017;-75
2022/10/29 10:24:30;;;;;;;13.52;10.85;;;;;;;;;;6274674;22;20015;-73
2022/10/29 10:26:56;;;;;;;13.85;10.50;;;;;;;;;;6300475;22;20177;-74
2022/10/29 10:29:25;;;;;;;13.98;10.65;;;;;;;;;;6300528;22;20447;-76
2022/10/29 10:31:54;;;;;;;16.55;10.10;;;;;;;;;;6222277;22;20095;-78
2022/10/29 10:34:23;;;;;;;14.93;11.63;;;;;;;;;;6300294;22;20007;-76
2022/10/29 10:36:49;;;;;;;20.27;12.45;;;;;;;;;;6272544;22;20073;-75
2022/10/29 10:39:18;;;;;;;12.93;9.82;;;;;;;;;;6272882;22;20042;-75
2022/10/29 10:41:44;;;;;;;14.27;10.23;;;;;;;;;;6273462;22;20045;-78
2022/10/29 10:44:10;;;;;;;14.32;11.45;;;;;;;;;;6247622;22;20019;-76
2022/10/29 10:46:37;;;;;;;12.93;10.85;;;;;;;;;;6272861;22;20011;-74
2022/10/29 10:49:06;;;;;;;13.27;10.95;;;;;;;;;;6273917;22;20015;-75
2022/10/29 10:51:32;;;;;;;13.68;10.05;;;;;;;;;;6300216;22;20015;-75
2022/10/29 10:53:59;;;;;;;11.25;10.05;;;;;;;;;;6301280;22;20023;-74
2022/10/29 10:56:25;;;;;;;13.73;11.10;;;;;;;;;;6302786;22;20019;-74
2022/10/29 10:58:51;;;;;;;12.63;11.32;;;;;;;;;;6302508;22;20014;-74
2022/10/29 11:01:46;;;;;;;14.80;12.35;;;;;;;;;;6275109;22;20300;-76
2022/10/29 11:04:15;;;;;;;11.95;9.63;;;;;;;;;;6249053;22;20015;-74
2022/10/29 11:06:42;;;;;;;15.35;12.68;;;;;;;;;;6306411;22;20011;-79
2022/10/29 11:09:11;;;;;;;15.63;13.45;;;;;;;;;;6249801;22;20007;-75
2022/10/29 11:11:37;;;;;;;18.92;14.32;;;;;;;;;;6274184;22;20023;-76
2022/10/29 11:14:09;;;;;;;10.77;9.65;;;;;;;;;;6274325;22;20077;-75
2022/10/29 11:16:44;;;;;;;12.13;8.95;;;;;;;;;;6275055;22;20094;-75
2022/10/29 11:19:25;;;;;;;11.50;9.68;;;;;;;;;;6303426;22;20011;-76
2022/10/29 11:21:50;;;;;;;;;;;;;;;;;;6304625;22;20032;-75
2022/10/29 11:24:22;;;;;;;20.83;13.02;;;;;;;;;;6276220;22;20354;-75
2022/10/29 11:26:50;;;;;;;11.00;9.48;;;;;;;;;;6303238;22;20023;-76
2022/10/29 11:29:35;;;;;;;16.77;11.73;;;;;;;;;;6275766;22;20018;-75
2022/10/29 11:32:05;;;;;;;14.95;13.02;;;;;;;;;;6293326;22;20015;-76
2022/10/29 11:34:35;;;;;;;19.50;12.75;;;;;;;;;;6268085;22;20011;-80
2022/10/29 11:37:02;;;;;;;21.45;13.25;;;;;;;;;;6312403;22;20090;-75
2022/10/29 11:39:30;;;;;;;17.98;12.10;;;;;;;;;;6300918;22;20621;-75
2022/10/29 11:41:56;;;;;;;19.45;11.88;;;;;;;;;;6272625;22;20007;-75
2022/10/29 11:44:23;;;;;;;14.15;10.00;;;;;;;;;;6222409;22;20073;-75
2022/10/29 11:46:50;;;;;;;19.40;12.85;;;;;;;;;;6302800;22;20094;-76
2022/10/29 11:49:34;;;;;;;18.50;12.98;;;;;;;;;;6303872;22;20019;-76
2022/10/29 11:52:00;;;;;;;19.60;13.38;;;;;;;;;;6276609;22;20047;-76
2022/10/29 11:54:35;;;;;;;16.05;11.70;;;;;;;;;;6303438;22;20024;-76
2022/10/29 11:57:07;;;;;;;13.32;10.45;;;;;;;;;;6304110;22;20038;-76
2022/10/29 11:59:39;;;;;;;16.20;12.52;;;;;;;;;;6304839;22;20115;-75
2022/10/29 12:02:14;;;;;;;17.40;12.13;;;;;;;;;;6304802;22;20443;-76
2022/10/29 12:04:43;;;;;;;16.40;12.98;;;;;;;;;;6303994;22;20098;-76
2022/10/29 12:07:12;;;;;;;24.33;15.93;;;;;;;;;;6250940;22;20417;-75
2022/10/29 12:09:38;;;;;;;18.27;13.85;;;;;;;;;;6303084;22;20061;-75
2022/10/29 12:12:22;;;;;;;23.23;14.32;;;;;;;;;;6303553;22;20023;-76
2022/10/29 12:14:51;;;;;;;19.30;13.50;;;;;;;;;;6302704;22;20061;-76
2022/10/29 12:17:24;;;;;;;16.45;12.25;;;;;;;;;;6250589;22;20098;-75
2022/10/29 12:20:08;;;;;;;19.65;13.77;;;;;;;;;;6249931;22;20029;-75
2022/10/29 12:22:39;;;;;;;21.58;14.07;;;;;;;;;;6301920;22;20015;-76
2022/10/29 12:25:14;;;;;;;20.73;14.32;;;;;;;;;;6276180;22;20008;-76
2022/10/29 12:27:43;;;;;;;18.83;12.25;;;;;;;;;;6250673;22;20015;-76
2022/10/29 12:30:10;;;;;;;20.77;13.88;;;;;;;;;;6276003;22;20038;-76
2022/10/29 12:32:42;;;;;;;23.20;13.15;;;;;;;;;;6250948;22;20141;-78
2022/10/29 12:35:15;;;;;;;16.88;12.27;;;;;;;;;;6302933;22;20011;-75
2022/10/29 12:38:07;;;;;;;22.90;13.65;;;;;;;;;;6250051;22;20015;-76
2022/10/29 12:40:33;;;;;;;14.77;11.63;;;;;;;;;;6229777;22;20026;-75
2022/10/29 12:43:01;;;;;;;16.00;11.55;;;;;;;;;;6250153;22;20007;-75
2022/10/29 12:45:32;;;;;;;19.77;12.25;;;;;;;;;;6276357;22;20011;-75
2022/10/29 12:48:08;;;;;;;18.50;11.57;;;;;;;;;;6224772;22;20424;-76
2022/10/29 12:50:33;;;;;;;14.23;9.02;;;;;;;;;;6302849;22;20102;-76
2022/10/29 12:52:59;;;;;;;17.05;13.95;;;;;;;;;;6275189;22;20499;-77
2022/10/29 12:55:25;;;;;;;17.38;11.40;;;;;;;;;;6276084;22;20011;-76
2022/10/29 12:57:51;;;;;;;21.00;12.35;;;;;;;;;;6274890;22;20105;-76
2022/10/29 13:00:23;;;;;;;20.42;12.05;;;;;;;;;;6302993;22;20106;-75
2022/10/29 13:02:52;;;;;;;15.65;11.68;;;;;;;;;;6302334;22;20007;-75
2022/10/29 13:05:36;;;;;;;10.18;7.93;;;;;;;;;;6249796;22;20041;-77
2022/10/29 13:08:02;;;;;;;15.77;11.05;;;;;;;;;;6302952;22;20015;-75
2022/10/29 13:10:34;;;;;;;11.10;9.38;;;;;;;;;;6276427;22;20029;-78
2022/10/29 13:13:01;;;;;;;10.82;7.38;;;;;;;;;;6277963;22;20011;-78
2022/10/29 13:16:03;;;;;;;15.65;10.82;;;;;;;;;;6305677;22;20019;-78
2022/10/29 13:18:31;;;;;;;10.70;8.40;;;;;;;;;;6180295;23;20020;-78
2022/10/29 13:20:58;;;;;;;10.70;8.00;;;;;;;;;;6253521;22;20043;-77
2022/10/29 13:23:26;;;;;;;17.75;10.88;;;;;;;;;;6250312;22;20018;-77
2022/10/29 13:25:52;;;;;;;14.38;11.73;;;;;;;;;;6275258;22;20313;-77
2022/10/29 13:28:18;;;;;;;15.45;12.80;;;;;;;;;;6275410;22;20109;-78
2022/10/29 13:30:44;;;;;;;13.35;9.55;;;;;;;;;;6249743;22;20194;-77
2022/10/29 13:33:26;;;;;;;17.85;12.73;;;;;;;;;;6302480;22;20076;-77
2022/10/29 13:35:52;;;;;;;12.60;9.35;;;;;;;;;;6301869;22;20015;-77
2022/10/29 13:38:18;;;;;;;16.40;12.20;;;;;;;;;;6275297;22;20013;-78
2022/10/29 13:40:50;;;;;;;19.38;12.13;;;;;;;;;;6275250;22;20011;-78
2022/10/29 13:43:17;;;;;;;16.17;11.13;;;;;;;;;;6275456;22;20015;-78
2022/10/29 13:46:00;;;;;;;16.25;11.63;;;;;;;;;;6275671;22;20035;-79
2022/10/29 13:48:35;;;;;;;18.27;13.68;;;;;;;;;;6302668;22;20017;-78
2022/10/29 13:51:02;;;;;;;15.07;9.25;;;;;;;;;;6301666;22;20486;-78
2022/10/29 13:53:33;;;;;;;14.00;10.63;;;;;;;;;;6249177;22;20113;-78
2022/10/29 13:55:58;;;;;;;;;;;;;;;;;;6302665;22;20094;-78
2022/10/29 13:58:31;;;;;;;22.23;13.45;;;;;;;;;;6302205;22;20052;-76
2022/10/29 14:00:57;;;;;;;18.45;12.23;;;;;;;;;;6275376;22;20435;-77
2022/10/29 14:03:23;;;;;;;17.52;12.30;;;;;;;;;;6275392;22;20666;-77
2022/10/29 14:05:49;;;;;;;19.98;10.15;;;;;;;;;;6301644;22;20007;-77
2022/10/29 14:08:28;;;;;;;14.65;11.32;;;;;;;;;;6302100;22;20010;-77
2022/10/29 14:10:56;;;;;;;18.60;11.40;;;;;;;;;;6274786;22;20015;-78
2022/10/29 14:13:30;;;;;;;19.58;11.73;;;;;;;;;;6249735;22;20046;-77
2022/10/29 14:15:59;;;;;;;16.35;11.15;;;;;;;;;;6249437;22;20047;-78
2022/10/29 14:18:25;;;;;;;19.00;12.20;;;;;;;;;;6302366;22;20011;-78
2022/10/29 14:20:54;;;;;;;14.95;10.05;;;;;;;;;;6274374;22;20014;-78
2022/10/29 14:23:20;;;;;;;11.45;10.20;;;;;;;;;;6302590;22;20015;-78
2022/10/29 14:25:50;;;;;;;16.95;10.52;;;;;;;;;;6275017;22;20046;-77
2022/10/29 14:28:16;;;;;;;13.38;11.02;;;;;;;;;;6274802;22;20057;-79
2022/10/29 14:30:42;;;;;;;18.45;9.85;;;;;;;;;;6302178;22;20026;-78
2022/10/29 14:33:19;;;;;;;16.75;10.32;;;;;;;;;;6301515;22;20094;-78
2022/10/29 14:35:45;;;;;;;15.10;9.13;;;;;;;;;;6274664;22;20417;-79
2022/10/29 14:38:11;;;;;;;11.90;10.75;;;;;;;;;;6249217;22;20038;-78
2022/10/29 14:40:37;;;;;;;15.43;10.73;;;;;;;;;;6302530;22;20363;-78
2022/10/29 14:43:04;;;;;;;12.93;11.07;;;;;;;;;;6301828;22;20034;-78
2022/10/29 14:45:30;;;;;;;15.25;12.02;;;;;;;;;;6302265;22;20011;-78
2022/10/29 14:47:56;;;;;;;13.95;10.82;;;;;;;;;;6302367;22;20402;-78
2022/10/29 14:50:26;;;;;;;14.50;10.25;;;;;;;;;;6301996;22;20034;-78
2022/10/29 14:52:52;;;;;;;16.95;11.30;;;;;;;;;;6301977;22;20081;-78
2022/10/29 14:55:23;;;;;;;13.10;10.75;;;;;;;;;;6249533;22;20011;-78
2022/10/29 14:57:59;;;;;;;11.65;9.85;;;;;;;;;;6302156;22;20061;-78
2022/10/29 15:00:29;;;;;;;15.07;9.18;;;;;;;;;;6274404;22;20072;-77
2022/10/29 15:02:55;;;;;;;12.70;10.15;;;;;;;;;;6274598;22;20018;-79
2022/10/29 15:05:21;;;;;;;22.25;9.65;;;;;;;;;;6249152;22;20015;-79
2022/10/29 15:07:48;;;;;;;11.60;10.25;;;;;;;;;;6275535;22;20011;-78
2022/10/29 15:10:21;;;;;;;15.70;11.07;;;;;;;;;;6274883;22;20034;-78
2022/10/29 15:12:47;;;;;;;14.95;10.70;;;;;;;;;;6273917;22;20439;-76
2022/10/29 15:15:16;;;;;;;13.50;10.43;;;;;;;;;;6301344;22;20440;-77
2022/10/29 15:17:53;;;;;;;12.10;10.50;;;;;;;;;;6302968;22;20060;-76
2022/10/29 15:20:20;;;;;;;14.43;10.63;;;;;;;;;;6274938;22;20019;-76
2022/10/29 15:22:46;;;;;;;7.80;7.03;;;;;;;;;;6272988;22;20014;-76
2022/10/29 15:25:41;;;;;;;13.55;10.77;;;;;;;;;;6250015;22;20021;-74
2022/10/29 15:28:10;;;;;;;11.15;7.30;;;;;;;;;;6247357;22;20019;-74
2022/10/29 15:30:40;;;;;;;11.35;8.02;;;;;;;;;;6283506;22;20049;-73
2022/10/29 15:33:07;;;;;;;14.25;10.32;;;;;;;;;;6286440;22;20034;-75
2022/10/29 15:35:33;;;;;;;11.05;9.02;;;;;;;;;;6255429;22;20017;-75
2022/10/29 15:37:59;;;;;;;16.38;10.65;;;;;;;;;;6248847;22;20011;-75
2022/10/29 15:40:25;;;;;;;12.25;10.90;;;;;;;;;;6249148;22;20344;-73
2022/10/29 15:42:52;;;;;;;15.88;11.00;;;;;;;;;;6274838;22;20011;-74
2022/10/29 15:45:18;;;;;;;12.40;10.07;;;;;;;;;;6275282;22;20094;-74
2022/10/29 15:47:47;;;;;;;15.32;11.15;;;;;;;;;;6302439;22;20015;-75
2022/10/29 15:50:17;;;;;;;24.92;11.45;;;;;;;;;;6302148;22;20023;-74
2022/10/29 15:52:43;;;;;;;15.33;11.27;;;;;;;;;;6303672;22;20102;-74
2022/10/29 15:55:12;;;;;;;12.18;10.93;;;;;;;;;;6276172;22;20246;-75
2022/10/29 15:57:38;;;;;;;13.65;9.95;;;;;;;;;;6249758;22;20068;-74
2022/10/29 16:00:05;;;;;;;10.30;9.35;;;;;;;;;;6274064;22;20043;-73
2022/10/29 16:02:30;;;;;;;12.63;9.63;;;;;;;;;;6275477;22;20011;-74
2022/10/29 16:04:56;;;;;;;12.18;9.48;;;;;;;;;;6274570;22;20094;-74
2022/10/29 16:07:22;;;;;;;11.55;10.45;;;;;;;;;;6302399;22;20061;-75
2022/10/29 16:09:50;;;;;;;10.52;9.48;;;;;;;;;;6301960;22;20015;-76
2022/10/29 16:12:16;;;;;;;11.70;9.48;;;;;;;;;;6302076;22;20011;-75
2022/10/29 16:14:42;;;;;;;8.90;8.15;;;;;;;;;;6301815;22;20306;-77
2022/10/29 16:17:15;;;;;;;11.57;9.48;;;;;;;;;;6301355;22;20018;-76
2022/10/29 16:19:41;;;;;;;10.45;9.35;;;;;;;;;;6301775;22;20018;-76
2022/10/29 16:22:10;;;;;;;9.40;8.60;;;;;;;;;;6301702;22;20007;-75
2022/10/29 16:24:36;;;;;;;10.20;9.18;;;;;;;;;;6274773;22;20463;-76
2022/10/29 16:27:04;;;;;;;10.13;8.98;;;;;;;;;;6302068;22;20035;-75
2022/10/29 16:29:30;;;;;;;9.57;7.88;;;;;;;;;;6302406;22;20015;-75
2022/10/29 16:31:56;;;;;;;13.10;9.77;;;;;;;;;;6275381;22;20029;-77
2022/10/29 16:34:22;;;;;;;9.82;8.82;;;;;;;;;;6305366;22;20110;-75
2022/10/29 16:36:48;;;;;;;10.15;9.13;;;;;;;;;;6304217;22;20097;-75
2022/10/29 16:39:14;;;;;;;9.82;8.07;;;;;;;;;;6304492;22;20042;-76
2022/10/29 16:41:42;;;;;;;11.00;9.93;;;;;;;;;;6303586;22;20019;-75
2022/10/29 16:44:08;;;;;;;13.10;10.50;;;;;;;;;;6274187;22;20101;-75
2022/10/29 16:46:34;;;;;;;10.70;9.77;;;;;;;;;;6302447;22;20022;-75
2022/10/29 16:49:00;;;;;;;13.30;10.10;;;;;;;;;;6301254;22;20035;-75
2022/10/29 16:51:26;;;;;;;11.38;10.23;;;;;;;;;;6300602;22;20026;-74
2022/10/29 16:53:52;;;;;;;10.50;9.50;;;;;;;;;;6301456;22;20470;-76
2022/10/29 16:56:18;;;;;;;11.02;9.38;;;;;;;;;;6274385;22;20011;-77
2022/10/29 16:58:44;;;;;;;11.75;9.77;;;;;;;;;;6274051;22;20015;-75
2022/10/29 17:01:10;;;;;;;13.45;11.90;;;;;;;;;;6275170;22;20007;-73
2022/10/29 17:03:37;;;;;;;14.70;12.15;;;;;;;;;;6301733;22;20011;-73
2022/10/29 17:06:04;;;;;;;9.80;8.27;;;;;;;;;;6301278;22;20094;-73
2022/10/29 17:08:33;;;;;;;15.95;11.90;;;;;;;;;;6245944;22;20011;-74
2022/10/29 17:11:00;;;;;;;17.15;12.40;;;;;;;;;;6301128;22;20046;-74
2022/10/29 17:13:26;;;;;;;11.40;8.65;;;;;;;;;;6302095;22;20030;-76
2022/10/29 17:15:52;;;;;;;12.88;11.45;;;;;;;;;;6248442;22;20451;-74
2022/10/29 17:18:17;;;;;;;11.43;10.43;;;;;;;;;;6273931;22;20015;-75
2022/10/29 17:20:57;;;;;;;13.00;11.68;;;;;;;;;;6274163;22;20459;-73
2022/10/29 17:23:23;;;;;;;10.43;8.98;;;;;;;;;;6301039;22;20097;-73
2022/10/29 17:25:50;;;;;;;9.52;8.60;;;;;;;;;;6300927;22;20046;-73
2022/10/29 17:28:15;;;;;;;10.10;9.20;;;;;;;;;;6300998;22;20759;-73
2022/10/29 17:30:42;;;;;;;11.90;8.65;;;;;;;;;;6300789;22;20025;-74
2022/10/29 17:33:08;;;;;;;9.18;8.32;;;;;;;;;;6300848;22;20081;-73
2022/10/29 17:35:34;;;;;;;15.18;12.90;;;;;;;;;;6301060;22;20023;-73
2022/10/29 17:38:00;;;;;;;14.07;12.60;;;;;;;;;;6301018;22;20018;-73
2022/10/29 17:40:26;;;;;;;18.83;13.75;;;;;;;;;;6302851;22;20157;-73
2022/10/29 17:42:52;;;;;;;15.27;13.13;;;;;;;;;;6276422;22;20572;-74
2022/10/29 17:45:19;;;;;;;14.40;12.80;;;;;;;;;;6302021;22;20373;-73
2022/10/29 17:47:45;;;;;;;15.60;13.70;;;;;;;;;;6301757;22;20015;-74
2022/10/29 17:50:11;;;;;;;16.83;14.93;;;;;;;;;;6273634;22;20439;-73
2022/10/29 17:52:37;;;;;;;16.42;13.82;;;;;;;;;;6300796;22;20023;-73
2022/10/29 17:55:03;;;;;;;19.65;12.95;;;;;;;;;;6300556;22;20060;-73
2022/10/29 17:57:29;;;;;;;17.77;14.00;;;;;;;;;;6300767;22;20011;-74
2022/10/29 17:59:55;;;;;;;16.58;12.43;;;;;;;;;;6275091;22;20011;-73
2022/10/29 18:02:21;;;;;;;12.40;10.60;;;;;;;;;;6301043;22;20333;-74
2022/10/29 18:04:47;;;;;;;17.88;13.15;;;;;;;;;;6246605;22;20015;-74
2022/10/29 18:07:13;;;;;;;16.80;13.60;;;;;;;;;;6299213;22;20535;-74
2022/10/29 18:09:39;;;;;;;17.85;14.48;;;;;;;;;;6300059;22;20007;-73
2022/10/29 18:12:05;;;;;;;14.88;11.43;;;;;;;;;;6272317;22;20019;-73
2022/10/29 18:14:31;;;;;;;19.88;11.80;;;;;;;;;;6247590;22;20106;-74
2022/10/29 18:16:58;;;;;;;12.93;11.57;;;;;;;;;;6247236;22;20058;-73
2022/10/29 18:19:24;;;;;;;16.55;10.60;;;;;;;;;;6272859;22;20007;-73
2022/10/29 18:21:49;;;;;;;15.10;10.93;;;;;;;;;;6297645;22;20455;-73
2022/10/29 18:24:17;;;;;;;14.60;11.15;;;;;;;;;;6299803;22;20019;-73
2022/10/29 18:26:43;;;;;;;11.77;10.52;;;;;;;;;;6247856;22;20406;-74
2022/10/29 18:29:09;;;;;;;11.07;9.88;;;;;;;;;;6272891;22;20015;-73
2022/10/29 18:31:35;;;;;;;11.57;10.13;;;;;;;;;;6273920;22;20030;-73
2022/10/29 18:34:03;;;;;;;13.27;10.63;;;;;;;;;;6300057;22;20011;-73
2022/10/29 18:36:29;;;;;;;12.77;10.40;;;;;;;;;;6273508;22;20015;-73
2022/10/29 18:38:57;;;;;;;10.95;9.85;;;;;;;;;;6272545;22;20110;-73
2022/10/29 18:41:23;;;;;;;12.90;10.07;;;;;;;;;;6272800;22;20027;-75
2022/10/29 18:43:49;;;;;;;21.88;11.70;;;;;;;;;;6300648;22;20011;-73
2022/10/29 18:46:15;;;;;;;13.25;9.93;;;;;;;;;;6247594;22;20695;-73
2022/10/29 18:48:41;;;;;;;15.43;12.23;;;;;;;;;;6300362;22;20007;-73
2022/10/29 18:51:08;;;;;;;16.95;10.38;;;;;;;;;;6246627;22;20627;-74
2022/10/29 18:53:34;;;;;;;16.90;11.68;;;;;;;;;;6274333;22;20102;-73
2022/10/29 18:56:00;;;;;;;12.98;11.20;;;;;;;;;;6300785;22;20015;-74
2022/10/29 18:58:26;;;;;;;15.48;11.48;;;;;;;;;;6303272;22;20014;-73
2022/10/29 19:00:51;;;;;;;17.70;11.40;;;;;;;;;;6307161;22;20186;-73
2022/10/29 19:03:17;;;;;;;15.77;11.82;;;;;;;;;;6303430;22;20485;-73
2022/10/29 19:05:44;;;;;;;20.13;12.45;;;;;;;;;;6302030;22;20015;-74
2022/10/29 19:08:11;;;;;;;19.05;12.77;;;;;;;;;;6304189;22;20011;-75
2022/10/29 19:10:38;;;;;;;16.00;10.52;;;;;;;;;;6273722;22;20019;-73
2022/10/29 19:13:04;;;;;;;18.15;12.02;;;;;;;;;;6300549;22;20030;-73
2022/10/29 19:15:36;;;;;;;17.02;11.82;;;;;;;;;;6303060;22;20011;-74
2022/10/29 19:18:02;;;;;;;23.55;13.40;;;;;;;;;;6248900;22;20026;-73
2022/10/29 19:20:28;;;;;;;17.23;12.25;;;;;;;;;;6277309;22;20015;-73
2022/10/29 19:22:54;;;;;;;23.67;11.93;;;;;;;;;;6249671;22;20011;-75
2022/10/29 19:25:20;;;;;;;18.67;13.13;;;;;;;;;;6276663;22;20390;-75
2022/10/29 19:27:47;;;;;;;22.45;13.77;;;;;;;;;;6276253;22;20027;-72
2022/10/29 19:30:14;;;;;;;26.70;16.17;;;;;;;;;;6304906;22;20451;-74
2022/10/29 19:32:40;;;;;;;23.08;14.02;;;;;;;;;;6307127;22;20459;-74
2022/10/29 19:35:06;;;;;;;15.20;11.52;;;;;;;;;;6274139;22;20176;-74
2022/10/29 19:37:32;;;;;;;23.10;14.95;;;;;;;;;;6249291;22;20035;-74
2022/10/29 19:39:58;;;;;;;31.05;17.70;;;;;;;;;;6274444;22;20039;-74
2022/10/29 19:42:24;;;;;;;34.25;19.35;;;;;;;;;;6249459;22;20092;-73
2022/10/29 19:44:50;;;;;;;18.73;12.88;;;;;;;;;;6274066;22;20011;-73
2022/10/29 19:47:16;;;;;;;37.33;21.20;;;;;;;;;;6301371;22;20014;-74
2022/10/29 19:49:42;;;;;;;21.27;13.00;;;;;;;;;;6274393;22;20011;-74
2022/10/29 19:52:08;;;;;;;33.30;20.08;;;;;;;;;;6273979;22;20359;-73
2022/10/29 19:54:34;;;;;;;37.45;22.85;;;;;;;;;;6274065;22;20597;-74
2022/10/29 19:57:00;;;;;;;32.22;18.13;;;;;;;;;;6273874;22;20624;-74
2022/10/29 19:59:26;;;;;;;15.60;12.23;;;;;;;;;;6248895;22;20018;-75
2022/10/29 20:01:52;;;;;;;32.83;20.92;;;;;;;;;;6274543;22;20007;-76
2022/10/29 20:04:18;;;;;;;32.85;19.50;;;;;;;;;;6302206;22;20072;-74
2022/10/29 20:06:44;;;;;;;33.42;20.60;;;;;;;;;;6276401;22;20019;-74
2022/10/29 20:09:09;;;;;;;28.33;17.00;;;;;;;;;;6276126;22;20011;-74
2022/10/29 20:11:36;;;;;;;34.72;20.35;;;;;;;;;;6251625;22;20076;-75
2022/10/29 20:14:02;;;;;;;28.17;19.13;;;;;;;;;;6277180;22;20101;-75
2022/10/29 20:16:27;;;;;;;33.53;20.08;;;;;;;;;;6304503;22;20045;-76
2022/10/29 20:18:53;;;;;;;28.38;19.83;;;;;;;;;;6304873;22;20011;-76
2022/10/29 20:21:19;;;;;;;31.17;19.88;;;;;;;;;;6304710;22;20341;-76
2022/10/29 20:23:45;;;;;;;17.05;11.60;;;;;;;;;;6252035;22;20039;-75
2022/10/29 20:26:12;;;;;;;16.50;13.13;;;;;;;;;;6303263;22;20072;-75
2022/10/29 20:28:38;;;;;;;15.32;10.25;;;;;;;;;;6303517;22;20049;-74
2022/10/29 20:31:22;;;;;;;12.98;9.95;;;;;;;;;;6275755;22;20431;-73
2022/10/29 20:33:57;;;;;;;9.98;8.43;;;;;;;;;;6303553;22;20022;-74
2022/10/29 20:36:23;;;;;;;14.85;12.35;;;;;;;;;;6275566;22;20064;-74
2022/10/29 20:38:49;;;;;;;10.20;9.10;;;;;;;;;;6276231;22;20094;-75
2022/10/29 20:41:15;;;;;;;9.27;8.38;;;;;;;;;;6302764;22;20018;-75
2022/10/29 20:43:42;;;;;;;9.60;8.70;;;;;;;;;;6303410;22;20015;-74
2022/10/29 20:46:08;;;;;;;10.68;9.68;;;;;;;;;;6249934;22;20102;-74
2022/10/29 20:48:35;;;;;;;10.60;9.38;;;;;;;;;;6276106;22;20022;-74
2022/10/29 20:51:01;;;;;;;11.52;9.68;;;;;;;;;;6302650;22;20022;-75
2022/10/29 20:53:27;;;;;;;12.15;10.18;;;;;;;;;;6275777;22;20019;-75
2022/10/29 20:55:53;;;;;;;11.00;9.80;;;;;;;;;;6275951;22;20061;-75
2022/10/29 20:58:19;;;;;;;12.23;10.93;;;;;;;;;;6224793;22;20011;-75
2022/10/29 21:00:45;;;;;;;14.70;10.40;;;;;;;;;;6249880;22;20011;-75
2022/10/29 21:03:12;;;;;;;13.82;10.43;;;;;;;;;;6302636;22;20018;-74
2022/10/29 21:05:38;;;;;;;16.20;10.40;;;;;;;;;;6275674;22;20011;-74
2022/10/29 21:08:04;;;;;;;11.82;10.35;;;;;;;;;;6275763;22;20014;-74
2022/10/29 21:10:30;;;;;;;11.82;9.07;;;;;;;;;;6275489;22;20051;-75
2022/10/29 21:12:58;;;;;;;12.70;9.15;;;;;;;;;;6275528;22;20007;-75
2022/10/29 21:15:24;;;;;;;12.23;10.90;;;;;;;;;;6302341;22;20603;-76
2022/10/29 21:17:50;;;;;;;9.15;7.93;;;;;;;;;;6301189;22;20011;-76
2022/10/29 21:20:19;;;;;;;14.18;10.27;;;;;;;;;;6302330;22;20588;-75
2022/10/29 21:22:48;;;;;;;12.88;10.95;;;;;;;;;;6275718;22;20023;-75
2022/10/29 21:25:16;;;;;;;11.63;10.43;;;;;;;;;;6250043;22;20015;-76